Time;durP1;ratioP1;P1;durP2;ratioP2;P2;SDS_P1;SDS_P2;PMS_P1;PMS_P2;Temp;Humidity;BMP_temperature;BMP_pressure;BME280_temperature;BME280_humidity;BME280_pressure;Samples;Min_cycle;Max_cycle;Signal;HPM_P1;HPM_P2
2023/12/31 00:00:03;;;;;;;1.98;1.42;;;;;;;;;;5030198;28;20041;-82
2023/12/31 00:02:29;;;;;;;2.78;1.35;;;;;;;;;;5043098;28;20043;-82
2023/12/31 00:04:55;;;;;;;3.70;1.63;;;;;;;;;;5035682;28;20033;-82
2023/12/31 00:07:21;;;;;;;2.70;1.60;;;;;;;;;;5042507;28;20435;-82
2023/12/31 00:09:47;;;;;;;2.35;1.65;;;;;;;;;;5034528;28;20086;-82
2023/12/31 00:12:14;;;;;;;2.78;1.90;;;;;;;;;;5050213;28;20088;-82
2023/12/31 00:14:40;;;;;;;2.78;1.50;;;;;;;;;;5026602;28;20045;-82
2023/12/31 00:17:06;;;;;;;3.72;1.65;;;;;;;;;;5051522;28;20043;-82
2023/12/31 00:19:32;;;;;;;4.03;1.88;;;;;;;;;;5029620;28;20124;-82
2023/12/31 00:21:58;;;;;;;2.35;1.65;;;;;;;;;;5046956;28;20084;-82
2023/12/31 00:24:24;;;;;;;2.08;1.48;;;;;;;;;;5047905;28;20064;-82
2023/12/31 00:26:50;;;;;;;3.92;1.70;;;;;;;;;;5050394;28;20040;-82
2023/12/31 00:29:16;;;;;;;1.27;1.13;;;;;;;;;;5051153;28;20373;-82
2023/12/31 00:31:42;;;;;;;2.80;1.48;;;;;;;;;;5051046;28;20061;-82
2023/12/31 00:34:08;;;;;;;2.90;2.13;;;;;;;;;;5050953;28;20664;-82
2023/12/31 00:36:34;;;;;;;2.45;1.33;;;;;;;;;;5051121;28;20040;-82
2023/12/31 00:39:00;;;;;;;2.60;1.55;;;;;;;;;;5035509;28;20132;-82
2023/12/31 00:41:26;;;;;;;3.78;1.60;;;;;;;;;;5032153;28;20080;-82
2023/12/31 00:43:52;;;;;;;1.40;1.30;;;;;;;;;;5045353;28;20044;-82
2023/12/31 00:46:18;;;;;;;1.80;1.48;;;;;;;;;;5047412;28;20433;-82
2023/12/31 00:48:44;;;;;;;2.65;1.58;;;;;;;;;;5052022;28;20044;-82
2023/12/31 00:51:10;;;;;;;2.17;1.77;;;;;;;;;;5032659;28;20044;-82
2023/12/31 00:53:36;;;;;;;2.00;1.35;;;;;;;;;;5051326;28;20041;-82
2023/12/31 00:56:03;;;;;;;1.70;0.88;;;;;;;;;;5048698;28;20041;-82
2023/12/31 00:58:29;;;;;;;1.75;1.10;;;;;;;;;;5050656;28;20033;-82
2023/12/31 01:00:55;;;;;;;3.28;1.40;;;;;;;;;;5049847;28;20082;-82
2023/12/31 01:03:21;;;;;;;2.65;1.05;;;;;;;;;;5051296;28;20388;-82
2023/12/31 01:05:47;;;;;;;2.60;1.42;;;;;;;;;;5050181;28;20037;-82
2023/12/31 01:08:13;;;;;;;2.92;0.90;;;;;;;;;;5051262;28;20057;-82
2023/12/31 01:10:39;;;;;;;3.10;1.20;;;;;;;;;;5051361;28;20067;-82
2023/12/31 01:13:05;;;;;;;2.03;1.20;;;;;;;;;;5046101;28;20037;-82
2023/12/31 01:15:31;;;;;;;2.25;1.30;;;;;;;;;;5047530;28;20087;-82
2023/12/31 01:17:57;;;;;;;2.38;1.77;;;;;;;;;;5046749;28;20036;-82
2023/12/31 01:20:23;;;;;;;1.83;1.10;;;;;;;;;;5047132;28;20029;-82
2023/12/31 01:22:49;;;;;;;1.45;1.02;;;;;;;;;;5034295;28;20037;-82
2023/12/31 01:25:15;;;;;;;4.07;0.90;;;;;;;;;;5029428;28;20099;-82
2023/12/31 01:27:41;;;;;;;2.03;1.17;;;;;;;;;;5049918;28;20036;-82
2023/12/31 01:30:07;;;;;;;1.98;1.20;;;;;;;;;;5050878;28;20140;-82
2023/12/31 01:32:33;;;;;;;1.45;0.93;;;;;;;;;;5048445;28;20042;-82
2023/12/31 01:34:59;;;;;;;1.67;1.05;;;;;;;;;;5034967;28;20072;-82
2023/12/31 01:37:26;;;;;;;2.22;1.30;;;;;;;;;;5051097;28;22721;-82
2023/12/31 01:39:52;;;;;;;2.40;1.20;;;;;;;;;;5051410;28;20512;-82
2023/12/31 01:42:18;;;;;;;2.13;1.08;;;;;;;;;;5052038;28;20051;-82
2023/12/31 01:44:44;;;;;;;2.75;1.13;;;;;;;;;;5049761;28;20069;-82
2023/12/31 01:47:10;;;;;;;3.72;2.45;;;;;;;;;;5043948;28;20168;-82
2023/12/31 01:49:36;;;;;;;2.28;0.95;;;;;;;;;;5048101;28;20122;-82
2023/12/31 01:52:03;;;;;;;2.63;1.42;;;;;;;;;;5047534;28;20045;-82
2023/12/31 01:54:29;;;;;;;1.10;0.90;;;;;;;;;;5050017;28;20515;-82
2023/12/31 01:56:56;;;;;;;3.05;1.20;;;;;;;;;;5049208;28;20037;-82
2023/12/31 01:59:22;;;;;;;2.17;1.48;;;;;;;;;;5053083;28;20060;-82
2023/12/31 02:01:48;;;;;;;2.17;0.90;;;;;;;;;;5053284;28;20522;-82
2023/12/31 02:04:15;;;;;;;1.33;0.93;;;;;;;;;;5035197;28;20047;-82
2023/12/31 02:06:41;;;;;;;2.05;1.17;;;;;;;;;;5052021;28;20044;-82
2023/12/31 02:09:08;;;;;;;2.42;1.00;;;;;;;;;;5049432;28;20043;-82
2023/12/31 02:11:35;;;;;;;2.88;1.48;;;;;;;;;;5051531;28;20408;-82
2023/12/31 02:14:01;;;;;;;2.22;1.02;;;;;;;;;;5048781;28;20037;-82
2023/12/31 02:16:27;;;;;;;1.90;1.00;;;;;;;;;;5054443;28;20048;-82
2023/12/31 02:18:53;;;;;;;1.35;0.90;;;;;;;;;;5052389;28;20091;-82
2023/12/31 02:21:20;;;;;;;2.22;1.25;;;;;;;;;;5048758;28;20042;-82
2023/12/31 02:23:46;;;;;;;3.50;1.20;;;;;;;;;;5053308;28;20059;-82
2023/12/31 02:26:12;;;;;;;1.42;1.30;;;;;;;;;;5055921;28;20044;-82
2023/12/31 02:28:39;;;;;;;1.27;1.00;;;;;;;;;;5049467;28;20048;-82
2023/12/31 02:31:05;;;;;;;2.58;1.20;;;;;;;;;;5056067;28;20124;-82
2023/12/31 02:33:32;;;;;;;2.70;1.20;;;;;;;;;;5040722;28;22606;-82
2023/12/31 02:35:58;;;;;;;1.73;1.00;;;;;;;;;;5038781;28;20081;-82
2023/12/31 02:38:24;;;;;;;1.85;1.10;;;;;;;;;;5058332;28;20045;-82
2023/12/31 02:40:50;;;;;;;3.67;1.10;;;;;;;;;;5039100;28;20481;-82
2023/12/31 02:43:16;;;;;;;1.63;1.05;;;;;;;;;;5052143;28;20498;-82
2023/12/31 02:45:42;;;;;;;2.00;0.95;;;;;;;;;;5035961;28;20033;-82
2023/12/31 02:48:08;;;;;;;1.25;0.75;;;;;;;;;;5040290;28;20144;-82
2023/12/31 02:50:34;;;;;;;1.00;0.82;;;;;;;;;;5055595;28;20047;-82
2023/12/31 02:53:00;;;;;;;2.15;1.40;;;;;;;;;;5053757;28;20047;-82
2023/12/31 02:55:26;;;;;;;0.82;0.80;;;;;;;;;;5038312;28;20664;-82
2023/12/31 02:57:52;;;;;;;1.23;0.93;;;;;;;;;;5055455;28;20064;-82
2023/12/31 03:00:18;;;;;;;1.20;0.88;;;;;;;;;;5043206;28;20443;-82
2023/12/31 03:02:44;;;;;;;1.83;0.85;;;;;;;;;;5059544;28;20036;-82
2023/12/31 03:05:12;;;;;;;1.20;0.80;;;;;;;;;;5055898;28;20060;-82
2023/12/31 03:07:38;;;;;;;2.10;1.08;;;;;;;;;;5055267;28;20048;-82
2023/12/31 03:10:04;;;;;;;2.28;0.90;;;;;;;;;;5055971;28;20132;-82
2023/12/31 03:12:30;;;;;;;1.02;0.90;;;;;;;;;;5056715;28;20037;-82
2023/12/31 03:14:56;;;;;;;0.90;0.70;;;;;;;;;;5060266;28;20048;-82
2023/12/31 03:17:23;;;;;;;0.75;0.68;;;;;;;;;;5056596;28;20037;-82
2023/12/31 03:19:50;;;;;;;1.30;0.77;;;;;;;;;;5043166;28;20480;-82
2023/12/31 03:22:16;;;;;;;2.28;0.80;;;;;;;;;;5057803;28;20072;-82
2023/12/31 03:24:43;;;;;;;3.08;0.82;;;;;;;;;;5049830;28;20040;-82
2023/12/31 03:27:09;;;;;;;1.10;0.77;;;;;;;;;;5035726;28;20044;-83
2023/12/31 03:29:38;;;;;;;1.65;0.90;;;;;;;;;;5039952;28;20131;-82
2023/12/31 03:32:05;;;;;;;0.80;0.75;;;;;;;;;;5051300;28;20044;-82
2023/12/31 03:34:31;;;;;;;2.20;0.70;;;;;;;;;;5039244;28;20099;-82
2023/12/31 03:36:57;;;;;;;1.42;0.80;;;;;;;;;;5051748;28;20036;-82
2023/12/31 03:39:23;;;;;;;1.88;0.65;;;;;;;;;;5035356;28;20037;-82
2023/12/31 03:41:49;;;;;;;0.70;0.60;;;;;;;;;;5054116;28;20037;-82
2023/12/31 03:44:15;;;;;;;1.10;0.70;;;;;;;;;;5049941;28;20045;-82
2023/12/31 03:46:42;;;;;;;1.80;0.77;;;;;;;;;;5053460;28;20041;-82
2023/12/31 03:49:08;;;;;;;0.98;0.70;;;;;;;;;;5050864;28;20234;-82
2023/12/31 03:51:34;;;;;;;1.80;0.80;;;;;;;;;;5057167;28;20036;-82
2023/12/31 03:54:00;;;;;;;0.70;0.60;;;;;;;;;;5050905;28;20039;-82
2023/12/31 03:56:26;;;;;;;0.80;0.75;;;;;;;;;;5058727;28;20055;-82
2023/12/31 03:58:52;;;;;;;1.67;0.80;;;;;;;;;;5056196;28;20383;-82
2023/12/31 04:01:18;;;;;;;1.13;0.80;;;;;;;;;;5052366;28;20120;-82
2023/12/31 04:03:44;;;;;;;1.58;0.68;;;;;;;;;;5055731;28;20600;-82
2023/12/31 04:06:10;;;;;;;1.65;0.70;;;;;;;;;;5054160;28;20042;-82
2023/12/31 04:08:37;;;;;;;1.10;0.55;;;;;;;;;;5035168;28;20137;-82
2023/12/31 04:11:03;;;;;;;1.23;0.93;;;;;;;;;;5033970;28;20488;-82
2023/12/31 04:13:29;;;;;;;1.10;0.95;;;;;;;;;;5035726;28;20091;-82
2023/12/31 04:15:55;;;;;;;1.60;1.02;;;;;;;;;;5055881;28;20120;-82
2023/12/31 04:18:21;;;;;;;1.15;0.98;;;;;;;;;;5058407;28;20064;-82
2023/12/31 04:20:47;;;;;;;1.77;0.95;;;;;;;;;;5048743;28;20033;-82
2023/12/31 04:23:14;;;;;;;2.35;1.33;;;;;;;;;;5034825;28;20404;-82
2023/12/31 04:25:40;;;;;;;1.23;0.90;;;;;;;;;;5057558;28;20047;-82
2023/12/31 04:28:06;;;;;;;1.63;1.20;;;;;;;;;;5052161;28;20048;-82
2023/12/31 04:30:32;;;;;;;1.15;0.80;;;;;;;;;;5057346;28;20045;-82
2023/12/31 04:32:58;;;;;;;1.98;0.90;;;;;;;;;;5015812;28;21916;-82
2023/12/31 04:35:24;;;;;;;2.35;1.00;;;;;;;;;;5057192;28;20044;-82
2023/12/31 04:37:50;;;;;;;1.95;1.15;;;;;;;;;;5055041;28;20128;-82
2023/12/31 04:40:16;;;;;;;1.15;1.00;;;;;;;;;;5040122;28;20090;-82
2023/12/31 04:42:42;;;;;;;0.80;0.75;;;;;;;;;;5054880;28;20037;-82
2023/12/31 04:45:09;;;;;;;1.90;1.05;;;;;;;;;;5039619;28;20041;-82
2023/12/31 04:47:36;;;;;;;0.93;0.77;;;;;;;;;;5033445;28;20120;-82
2023/12/31 04:50:02;;;;;;;1.85;1.23;;;;;;;;;;5056663;28;20044;-82
2023/12/31 04:52:28;;;;;;;1.20;0.90;;;;;;;;;;5040807;28;20040;-82
2023/12/31 04:54:54;;;;;;;1.58;1.10;;;;;;;;;;5054603;28;20040;-82
2023/12/31 04:57:20;;;;;;;1.77;1.00;;;;;;;;;;5055650;28;20033;-82
2023/12/31 04:59:46;;;;;;;1.42;1.13;;;;;;;;;;5053488;28;20052;-82
2023/12/31 05:02:12;;;;;;;1.15;1.00;;;;;;;;;;5055129;28;20045;-82
2023/12/31 05:04:40;;;;;;;1.50;1.10;;;;;;;;;;5060443;28;20037;-82
2023/12/31 05:07:11;;;;;;;2.15;1.42;;;;;;;;;;5041079;28;20057;-82
2023/12/31 05:09:36;;;;;;;;;;;;;;;;;;5055792;28;20489;-82
2023/12/31 05:12:02;;;;;;;1.35;1.00;;;;;;;;;;5043276;28;20004;-82
2023/12/31 05:14:28;;;;;;;2.30;0.90;;;;;;;;;;5039185;28;20037;-82
2023/12/31 05:16:54;;;;;;;1.33;1.13;;;;;;;;;;5034758;28;20053;-82
2023/12/31 05:19:20;;;;;;;2.03;1.38;;;;;;;;;;5044158;28;20048;-82
2023/12/31 05:21:46;;;;;;;1.92;1.15;;;;;;;;;;5037749;28;20097;-82
2023/12/31 05:24:12;;;;;;;1.38;0.98;;;;;;;;;;5034469;28;20096;-82
2023/12/31 05:26:38;;;;;;;0.90;0.85;;;;;;;;;;5055371;28;20084;-82
2023/12/31 05:29:04;;;;;;;2.42;1.50;;;;;;;;;;5058774;28;20094;-82
2023/12/31 05:31:30;;;;;;;1.48;1.38;;;;;;;;;;5061176;28;20041;-82
2023/12/31 05:33:56;;;;;;;1.20;1.02;;;;;;;;;;5055347;28;20047;-82
2023/12/31 05:36:22;;;;;;;2.38;1.00;;;;;;;;;;5042152;28;20040;-82
2023/12/31 05:38:48;;;;;;;1.75;1.23;;;;;;;;;;5053385;28;20033;-82
2023/12/31 05:41:14;;;;;;;1.13;0.90;;;;;;;;;;5058304;28;20044;-82
2023/12/31 05:43:40;;;;;;;3.50;1.20;;;;;;;;;;5058339;28;20033;-82
2023/12/31 05:46:06;;;;;;;2.00;1.15;;;;;;;;;;5052004;28;20029;-82
2023/12/31 05:48:32;;;;;;;2.17;1.20;;;;;;;;;;5055244;28;20033;-82
2023/12/31 05:50:59;;;;;;;1.20;0.95;;;;;;;;;;5056051;28;20033;-82
2023/12/31 05:53:24;;;;;;;1.30;0.73;;;;;;;;;;5055638;28;20404;-82
2023/12/31 05:55:50;;;;;;;1.45;1.17;;;;;;;;;;5056155;28;20037;-82
2023/12/31 05:58:17;;;;;;;2.30;1.20;;;;;;;;;;5051389;28;20045;-82
2023/12/31 06:00:42;;;;;;;2.15;1.33;;;;;;;;;;5054783;28;20123;-82
2023/12/31 06:03:08;;;;;;;1.65;1.33;;;;;;;;;;5051824;28;20574;-82
2023/12/31 06:05:34;;;;;;;1.67;1.23;;;;;;;;;;5052895;28;20124;-82
2023/12/31 06:08:00;;;;;;;1.90;1.10;;;;;;;;;;5038630;28;20068;-82
2023/12/31 06:10:26;;;;;;;1.27;1.02;;;;;;;;;;5054368;28;20039;-82
2023/12/31 06:12:52;;;;;;;2.13;1.20;;;;;;;;;;5034038;28;20049;-82
2023/12/31 06:15:18;;;;;;;2.40;1.38;;;;;;;;;;5036098;28;20045;-82
2023/12/31 06:17:44;;;;;;;2.28;1.25;;;;;;;;;;5056636;28;20037;-82
2023/12/31 06:20:10;;;;;;;2.05;1.48;;;;;;;;;;5038305;28;20040;-82
2023/12/31 06:22:36;;;;;;;2.72;1.70;;;;;;;;;;5053743;28;20059;-82
2023/12/31 06:25:03;;;;;;;1.33;1.20;;;;;;;;;;5031276;28;20048;-82
2023/12/31 06:27:29;;;;;;;3.90;1.42;;;;;;;;;;5031859;28;20403;-82
2023/12/31 06:29:55;;;;;;;2.30;1.50;;;;;;;;;;5035509;28;20488;-82
2023/12/31 06:32:20;;;;;;;1.67;0.90;;;;;;;;;;5056982;28;20099;-82
2023/12/31 06:34:47;;;;;;;2.03;1.63;;;;;;;;;;5059212;28;20044;-82
2023/12/31 06:37:13;;;;;;;2.17;1.40;;;;;;;;;;5041359;28;20484;-82
2023/12/31 06:39:43;;;;;;;1.45;1.35;;;;;;;;;;5042997;28;20088;-82
2023/12/31 06:42:09;;;;;;;1.08;0.98;;;;;;;;;;5035677;28;20612;-82
2023/12/31 06:44:35;;;;;;;1.88;1.15;;;;;;;;;;5059497;28;20103;-82
2023/12/31 06:47:01;;;;;;;1.73;1.27;;;;;;;;;;5057045;28;20116;-82
2023/12/31 06:49:27;;;;;;;1.65;1.20;;;;;;;;;;5054886;28;20048;-82
2023/12/31 06:51:53;;;;;;;2.45;1.95;;;;;;;;;;5054295;28;20053;-82
2023/12/31 06:54:19;;;;;;;1.30;1.00;;;;;;;;;;5054161;28;20397;-82
2023/12/31 06:56:45;;;;;;;3.35;1.20;;;;;;;;;;5055589;28;20124;-82
2023/12/31 06:59:11;;;;;;;2.10;1.58;;;;;;;;;;5057328;28;20037;-81
2023/12/31 07:01:37;;;;;;;1.90;1.13;;;;;;;;;;5058512;28;20048;-82
2023/12/31 07:04:03;;;;;;;2.60;1.63;;;;;;;;;;5056226;28;20055;-82
2023/12/31 07:06:29;;;;;;;1.60;1.42;;;;;;;;;;5037694;28;20380;-82
2023/12/31 07:08:55;;;;;;;2.22;1.50;;;;;;;;;;5051936;28;20048;-82
2023/12/31 07:11:21;;;;;;;1.25;1.05;;;;;;;;;;5059008;28;20436;-83
2023/12/31 07:13:47;;;;;;;2.60;1.27;;;;;;;;;;5055979;28;20071;-82
2023/12/31 07:16:14;;;;;;;2.20;1.40;;;;;;;;;;5056916;28;20097;-82
2023/12/31 07:18:41;;;;;;;1.58;1.20;;;;;;;;;;5050134;28;20037;-82
2023/12/31 07:21:07;;;;;;;1.83;1.30;;;;;;;;;;5044274;28;20068;-82
2023/12/31 07:23:33;;;;;;;1.55;1.10;;;;;;;;;;5045666;28;20040;-81
2023/12/31 07:25:59;;;;;;;1.48;1.10;;;;;;;;;;5053827;28;20178;-82
2023/12/31 07:28:25;;;;;;;1.40;1.15;;;;;;;;;;5055324;28;20086;-81
2023/12/31 07:30:51;;;;;;;2.45;1.70;;;;;;;;;;5055747;28;20056;-82
2023/12/31 07:33:18;;;;;;;2.25;1.50;;;;;;;;;;5054925;28;20365;-82
2023/12/31 07:35:44;;;;;;;1.25;1.15;;;;;;;;;;5052021;28;20037;-82
2023/12/31 07:38:11;;;;;;;1.63;1.30;;;;;;;;;;5064918;28;20047;-82
2023/12/31 07:40:37;;;;;;;2.10;1.33;;;;;;;;;;5043331;28;20045;-82
2023/12/31 07:43:03;;;;;;;1.25;1.08;;;;;;;;;;5051066;28;20552;-82
2023/12/31 07:45:29;;;;;;;1.67;1.30;;;;;;;;;;5052783;28;20045;-82
2023/12/31 07:47:55;;;;;;;3.05;1.30;;;;;;;;;;5052746;28;20052;-83
2023/12/31 07:50:21;;;;;;;2.20;1.45;;;;;;;;;;5054342;28;20396;-82
2023/12/31 07:52:47;;;;;;;2.40;1.73;;;;;;;;;;5050947;28;20435;-81
2023/12/31 07:55:13;;;;;;;2.00;1.25;;;;;;;;;;5051824;28;20087;-82
2023/12/31 07:57:39;;;;;;;1.60;1.35;;;;;;;;;;5048834;28;20080;-81
2023/12/31 08:00:06;;;;;;;1.92;1.73;;;;;;;;;;5048518;28;20444;-82
2023/12/31 08:02:32;;;;;;;3.35;1.60;;;;;;;;;;5053135;28;20060;-81
2023/12/31 08:04:58;;;;;;;2.47;1.20;;;;;;;;;;5051112;28;20037;-81
2023/12/31 08:07:24;;;;;;;2.05;1.13;;;;;;;;;;5039432;28;20045;-82
2023/12/31 08:09:50;;;;;;;2.35;1.63;;;;;;;;;;5012190;28;20049;-83
2023/12/31 08:12:16;;;;;;;2.60;1.27;;;;;;;;;;5011383;28;20071;-81
2023/12/31 08:14:42;;;;;;;1.23;1.10;;;;;;;;;;5011699;28;20057;-82
2023/12/31 08:17:08;;;;;;;2.88;1.48;;;;;;;;;;5032482;28;20045;-80
2023/12/31 08:19:34;;;;;;;2.35;1.65;;;;;;;;;;5015683;28;20489;-79
2023/12/31 08:22:00;;;;;;;2.75;1.75;;;;;;;;;;5028532;28;20045;-80
2023/12/31 08:24:26;;;;;;;2.35;1.40;;;;;;;;;;5036296;28;20041;-80
2023/12/31 08:26:52;;;;;;;1.88;1.63;;;;;;;;;;5036392;28;20048;-80
2023/12/31 08:29:18;;;;;;;1.83;1.27;;;;;;;;;;5037948;28;20116;-80
2023/12/31 08:31:52;;;;;;;3.38;1.60;;;;;;;;;;5013831;28;20140;-79
2023/12/31 08:34:18;;;;;;;1.75;1.50;;;;;;;;;;5033464;28;20052;-79
2023/12/31 08:36:44;;;;;;;1.65;1.23;;;;;;;;;;5017302;28;20042;-80
2023/12/31 08:39:10;;;;;;;2.50;1.20;;;;;;;;;;5030622;28;20040;-80
2023/12/31 08:41:36;;;;;;;4.10;1.67;;;;;;;;;;5013441;28;20044;-80
2023/12/31 08:44:03;;;;;;;2.17;1.48;;;;;;;;;;5032044;28;20484;-80
2023/12/31 08:46:30;;;;;;;2.78;1.58;;;;;;;;;;5014867;28;20144;-80
2023/12/31 08:48:56;;;;;;;1.77;1.40;;;;;;;;;;5013494;28;20416;-82
2023/12/31 08:51:22;;;;;;;1.25;1.13;;;;;;;;;;5013806;28;20045;-80
2023/12/31 08:53:48;;;;;;;3.05;1.42;;;;;;;;;;5033166;28;20084;-80
2023/12/31 08:56:14;;;;;;;1.88;1.02;;;;;;;;;;5034845;28;20044;-80
2023/12/31 08:58:40;;;;;;;1.90;1.60;;;;;;;;;;5035847;28;20049;-81
2023/12/31 09:01:08;;;;;;;1.90;1.55;;;;;;;;;;5034277;28;20040;-81
2023/12/31 09:03:34;;;;;;;1.85;1.40;;;;;;;;;;5037690;28;20045;-80
2023/12/31 09:06:00;;;;;;;1.38;1.20;;;;;;;;;;5036980;28;20052;-80
2023/12/31 09:08:26;;;;;;;1.90;1.30;;;;;;;;;;5019255;28;20092;-80
2023/12/31 09:10:54;;;;;;;2.00;1.38;;;;;;;;;;5031183;28;20911;-80
2023/12/31 09:13:22;;;;;;;2.00;1.55;;;;;;;;;;5020981;28;20056;-81
2023/12/31 09:15:48;;;;;;;1.80;1.38;;;;;;;;;;5034881;28;20045;-81
2023/12/31 09:18:14;;;;;;;2.53;1.48;;;;;;;;;;5019861;28;20042;-80
2023/12/31 09:20:40;;;;;;;2.13;1.30;;;;;;;;;;5037099;28;20121;-80
2023/12/31 09:23:06;;;;;;;1.30;1.08;;;;;;;;;;5037588;28;20494;-81
2023/12/31 09:25:32;;;;;;;2.20;1.30;;;;;;;;;;5004058;28;20045;-81
2023/12/31 09:27:58;;;;;;;2.00;1.05;;;;;;;;;;5032538;28;20099;-81
2023/12/31 09:30:25;;;;;;;2.75;1.45;;;;;;;;;;5036738;28;20037;-80
2023/12/31 09:32:51;;;;;;;2.03;1.38;;;;;;;;;;5018856;28;20076;-81
2023/12/31 09:35:17;;;;;;;2.30;1.55;;;;;;;;;;5038860;28;20073;-81
2023/12/31 09:37:43;;;;;;;1.33;0.98;;;;;;;;;;5043537;28;20065;-81
2023/12/31 09:40:09;;;;;;;1.85;1.48;;;;;;;;;;5034415;28;20041;-80
2023/12/31 09:42:51;;;;;;;1.60;1.48;;;;;;;;;;5038998;28;20061;-80
2023/12/31 09:45:28;;;;;;;1.40;1.15;;;;;;;;;;5023455;28;20515;-80
2023/12/31 09:47:54;;;;;;;2.03;1.23;;;;;;;;;;5037572;28;20045;-80
2023/12/31 09:50:22;;;;;;;2.35;1.50;;;;;;;;;;5040705;28;20041;-80
2023/12/31 09:52:48;;;;;;;1.83;1.27;;;;;;;;;;5038891;28;20088;-80
2023/12/31 09:55:18;;;;;;;1.58;1.23;;;;;;;;;;5038909;28;20039;-81
2023/12/31 09:57:46;;;;;;;1.80;1.27;;;;;;;;;;5020896;28;20080;-80
2023/12/31 10:00:13;;;;;;;1.58;1.33;;;;;;;;;;5019029;28;20073;-81
2023/12/31 10:02:39;;;;;;;1.65;1.27;;;;;;;;;;5038211;28;20045;-81
2023/12/31 10:05:05;;;;;;;2.20;1.23;;;;;;;;;;5019773;28;20059;-81
2023/12/31 10:07:31;;;;;;;1.23;1.05;;;;;;;;;;5047653;28;20522;-81
2023/12/31 10:09:58;;;;;;;1.90;1.45;;;;;;;;;;5049051;28;20131;-83
2023/12/31 10:12:24;;;;;;;2.30;1.25;;;;;;;;;;5053497;28;20294;-80
2023/12/31 10:14:51;;;;;;;2.40;1.42;;;;;;;;;;5057305;28;20037;-81
2023/12/31 10:17:17;;;;;;;4.72;2.05;;;;;;;;;;5057615;28;20510;-80
2023/12/31 10:19:45;;;;;;;2.20;1.92;;;;;;;;;;5056761;28;20039;-80
2023/12/31 10:22:13;;;;;;;3.63;1.67;;;;;;;;;;5053894;28;20482;-80
2023/12/31 10:24:40;;;;;;;2.13;1.90;;;;;;;;;;5036733;28;20072;-80
2023/12/31 10:27:11;;;;;;;1.95;1.75;;;;;;;;;;5053743;28;20056;-79
2023/12/31 10:29:37;;;;;;;;;;;;;;;;;;5048484;28;20033;-79
2023/12/31 10:32:03;;;;;;;4.07;2.42;;;;;;;;;;5054548;28;20012;-80
2023/12/31 10:34:29;;;;;;;2.22;1.80;;;;;;;;;;5029968;28;20488;-80
2023/12/31 10:37:03;;;;;;;2.28;1.52;;;;;;;;;;5051741;28;20556;-80
2023/12/31 10:39:30;;;;;;;1.67;1.58;;;;;;;;;;5032191;28;20087;-80
2023/12/31 10:42:00;;;;;;;3.22;1.73;;;;;;;;;;5033329;28;20048;-80
2023/12/31 10:44:27;;;;;;;3.05;1.63;;;;;;;;;;5056061;28;20040;-80
2023/12/31 10:46:53;;;;;;;2.70;1.60;;;;;;;;;;5052032;28;20060;-79
2023/12/31 10:49:22;;;;;;;1.60;1.50;;;;;;;;;;5051802;28;20044;-80
2023/12/31 10:51:51;;;;;;;3.70;1.98;;;;;;;;;;5054920;28;20041;-80
2023/12/31 10:54:21;;;;;;;2.30;2.05;;;;;;;;;;5030722;28;20034;-80
2023/12/31 10:56:48;;;;;;;3.83;1.90;;;;;;;;;;5049267;28;20029;-80
2023/12/31 10:59:14;;;;;;;3.08;1.65;;;;;;;;;;5054001;28;20069;-80
2023/12/31 11:01:41;;;;;;;2.10;1.73;;;;;;;;;;5034829;28;20071;-80
2023/12/31 11:04:08;;;;;;;3.72;1.92;;;;;;;;;;5050464;28;20036;-80
2023/12/31 11:06:34;;;;;;;2.10;1.70;;;;;;;;;;5055193;28;20043;-80
2023/12/31 11:09:01;;;;;;;2.35;1.70;;;;;;;;;;5052594;28;20103;-80
2023/12/31 11:11:27;;;;;;;3.00;2.13;;;;;;;;;;5048237;28;20032;-80
2023/12/31 11:13:55;;;;;;;2.67;1.85;;;;;;;;;;5047654;28;20455;-80
2023/12/31 11:16:41;;;;;;;3.40;2.08;;;;;;;;;;5052936;28;20033;-80
2023/12/31 11:19:24;;;;;;;2.20;1.70;;;;;;;;;;5051470;28;20131;-80
2023/12/31 11:21:58;;;;;;;2.88;1.90;;;;;;;;;;5048043;28;20107;-81
2023/12/31 11:24:25;;;;;;;2.55;2.05;;;;;;;;;;5053859;28;20164;-81
2023/12/31 11:27:07;;;;;;;2.70;2.17;;;;;;;;;;5030422;28;20041;-81
2023/12/31 11:29:33;;;;;;;4.15;2.50;;;;;;;;;;5048400;28;20040;-80
2023/12/31 11:31:59;;;;;;;2.25;2.05;;;;;;;;;;5049618;28;20095;-81
2023/12/31 11:34:25;;;;;;;2.15;1.55;;;;;;;;;;5054251;28;20044;-80
2023/12/31 11:36:55;;;;;;;2.53;1.75;;;;;;;;;;5056958;28;20045;-81
2023/12/31 11:39:23;;;;;;;1.65;1.55;;;;;;;;;;5055073;28;20428;-80
2023/12/31 11:41:52;;;;;;;1.35;1.20;;;;;;;;;;5053080;28;20046;-81
2023/12/31 11:44:38;;;;;;;1.25;0.57;;;;;;;;;;5052599;28;20041;-80
2023/12/31 11:47:06;;;;;;;0.40;0.22;;;;;;;;;;5050413;28;20037;-80
2023/12/31 11:49:32;;;;;;;1.58;0.60;;;;;;;;;;5054182;28;20051;-80
2023/12/31 11:52:01;;;;;;;4.57;0.70;;;;;;;;;;5051796;28;20504;-80
2023/12/31 11:54:39;;;;;;;2.35;0.63;;;;;;;;;;5053472;28;20037;-80
2023/12/31 11:57:10;;;;;;;1.77;0.85;;;;;;;;;;5051286;28;20112;-80
2023/12/31 11:59:36;;;;;;;1.88;1.00;;;;;;;;;;5050145;28;20041;-80
2023/12/31 12:02:03;;;;;;;2.85;1.17;;;;;;;;;;5052299;28;20037;-79
2023/12/31 12:04:29;;;;;;;1.63;0.98;;;;;;;;;;5054353;28;20040;-79
2023/12/31 12:06:55;;;;;;;1.95;0.88;;;;;;;;;;5051774;28;20503;-79
2023/12/31 12:09:28;;;;;;;1.02;0.73;;;;;;;;;;5053304;28;20040;-79
2023/12/31 12:12:01;;;;;;;1.40;1.00;;;;;;;;;;5045724;28;20126;-79
2023/12/31 12:14:27;;;;;;;0.80;0.60;;;;;;;;;;5054269;28;20044;-80
2023/12/31 12:16:54;;;;;;;0.80;0.60;;;;;;;;;;5050586;28;20029;-80
2023/12/31 12:19:20;;;;;;;1.52;0.60;;;;;;;;;;5053956;28;20404;-81
2023/12/31 12:21:46;;;;;;;1.17;0.63;;;;;;;;;;5059682;28;20041;-82
2023/12/31 12:24:12;;;;;;;0.93;0.70;;;;;;;;;;5046409;28;20082;-81
2023/12/31 12:26:38;;;;;;;1.20;0.50;;;;;;;;;;5052527;28;20067;-81
2023/12/31 12:29:04;;;;;;;0.85;0.45;;;;;;;;;;5048526;28;20501;-82
2023/12/31 12:31:35;;;;;;;1.58;0.50;;;;;;;;;;5050065;28;20492;-82
2023/12/31 12:34:03;;;;;;;0.65;0.55;;;;;;;;;;5034051;28;20060;-82
2023/12/31 12:36:29;;;;;;;0.52;0.43;;;;;;;;;;5054017;28;20036;-82
2023/12/31 12:38:59;;;;;;;2.70;0.80;;;;;;;;;;5044265;28;20048;-82
2023/12/31 12:41:25;;;;;;;0.95;0.55;;;;;;;;;;5052846;28;20400;-82
2023/12/31 12:43:51;;;;;;;0.73;0.70;;;;;;;;;;5052485;28;20041;-82
2023/12/31 12:46:17;;;;;;;1.15;0.85;;;;;;;;;;5053039;28;20033;-82
2023/12/31 12:48:50;;;;;;;2.08;0.60;;;;;;;;;;5048214;28;20040;-82
2023/12/31 12:51:16;;;;;;;1.52;1.25;;;;;;;;;;5044494;28;20500;-83
2023/12/31 12:53:42;;;;;;;2.28;1.42;;;;;;;;;;5047167;28;20124;-82
2023/12/31 12:56:08;;;;;;;2.05;1.42;;;;;;;;;;5052060;28;20045;-82
2023/12/31 12:58:34;;;;;;;3.80;1.73;;;;;;;;;;5054184;28;20033;-82
2023/12/31 13:01:00;;;;;;;2.58;1.60;;;;;;;;;;5051120;28;20043;-82
2023/12/31 13:03:26;;;;;;;2.38;1.33;;;;;;;;;;5053206;28;20048;-83
2023/12/31 13:05:52;;;;;;;2.08;0.90;;;;;;;;;;5048295;28;20044;-83
2023/12/31 13:08:18;;;;;;;1.17;0.70;;;;;;;;;;5050624;28;20072;-84
2023/12/31 13:10:44;;;;;;;2.22;0.88;;;;;;;;;;5050810;28;20076;-82
2023/12/31 13:13:10;;;;;;;0.63;0.40;;;;;;;;;;5049456;28;20064;-82
2023/12/31 13:15:36;;;;;;;2.08;1.10;;;;;;;;;;5049149;28;20033;-82
2023/12/31 13:18:03;;;;;;;0.70;0.55;;;;;;;;;;5052108;28;20047;-83
2023/12/31 13:20:29;;;;;;;2.58;0.57;;;;;;;;;;5048492;28;20029;-82
2023/12/31 13:22:55;;;;;;;1.42;0.40;;;;;;;;;;5047802;28;20049;-82
2023/12/31 13:25:22;;;;;;;1.50;0.47;;;;;;;;;;5047786;28;20044;-83
2023/12/31 13:27:48;;;;;;;0.65;0.35;;;;;;;;;;5046715;28;20069;-81
2023/12/31 13:30:14;;;;;;;1.30;0.45;;;;;;;;;;5046843;28;20033;-82
2023/12/31 13:32:40;;;;;;;2.60;0.50;;;;;;;;;;5047317;28;20072;-82
2023/12/31 13:35:06;;;;;;;0.77;0.20;;;;;;;;;;5046496;28;20431;-82
2023/12/31 13:37:32;;;;;;;0.38;0.13;;;;;;;;;;5047667;28;20080;-82
2023/12/31 13:39:58;;;;;;;4.18;0.50;;;;;;;;;;5048666;28;20037;-82
2023/12/31 13:42:25;;;;;;;0.40;0.40;;;;;;;;;;5049050;28;20503;-82
2023/12/31 13:44:51;;;;;;;3.55;0.50;;;;;;;;;;5048627;28;20127;-82
2023/12/31 13:47:17;;;;;;;1.67;0.55;;;;;;;;;;5051890;28;20056;-82
2023/12/31 13:49:43;;;;;;;2.28;0.40;;;;;;;;;;5049827;28;20040;-82
2023/12/31 13:52:10;;;;;;;2.05;0.52;;;;;;;;;;5048036;28;20488;-82
2023/12/31 13:54:36;;;;;;;2.22;0.70;;;;;;;;;;5055004;28;20060;-81
2023/12/31 13:57:02;;;;;;;2.40;0.70;;;;;;;;;;5046656;28;20041;-82
2023/12/31 13:59:28;;;;;;;1.65;0.70;;;;;;;;;;5052087;28;20044;-82
2023/12/31 14:01:57;;;;;;;2.47;1.10;;;;;;;;;;5052718;28;20045;-82
2023/12/31 14:04:23;;;;;;;2.15;1.23;;;;;;;;;;5042749;28;20448;-82
2023/12/31 14:06:49;;;;;;;1.73;1.05;;;;;;;;;;5050424;28;20033;-82
2023/12/31 14:09:17;;;;;;;2.75;1.00;;;;;;;;;;5036657;28;20069;-82
2023/12/31 14:11:43;;;;;;;3.17;1.40;;;;;;;;;;5016826;28;20448;-82
2023/12/31 14:14:09;;;;;;;2.65;1.45;;;;;;;;;;5034401;28;20662;-82
2023/12/31 14:16:38;;;;;;;3.10;1.63;;;;;;;;;;5035625;28;20057;-82
2023/12/31 14:19:06;;;;;;;4.35;2.00;;;;;;;;;;5017153;28;20045;-82
2023/12/31 14:21:32;;;;;;;4.53;1.77;;;;;;;;;;5035833;28;20037;-82
2023/12/31 14:23:58;;;;;;;3.47;1.73;;;;;;;;;;5036229;28;20389;-82
2023/12/31 14:26:24;;;;;;;2.25;1.38;;;;;;;;;;5035898;28;20037;-82
2023/12/31 14:28:50;;;;;;;3.88;2.00;;;;;;;;;;5035640;28;20110;-82
2023/12/31 14:31:19;;;;;;;2.92;1.58;;;;;;;;;;5034361;28;20133;-82
2023/12/31 14:33:45;;;;;;;1.30;0.98;;;;;;;;;;5035292;28;20040;-82
2023/12/31 14:36:12;;;;;;;3.33;1.80;;;;;;;;;;5038434;28;20037;-82
2023/12/31 14:38:39;;;;;;;4.25;2.40;;;;;;;;;;5036311;28;20124;-82